Time;durP1;ratioP1;P1;durP2;ratioP2;P2;SDS_P1;SDS_P2;PMS_P1;PMS_P2;Temp;Humidity;BMP_temperature;BMP_pressure;BME280_temperature;BME280_humidity;BME280_pressure;Samples;Min_cycle;Max_cycle;Signal;HPM_P1;HPM_P2
2023/12/13 00:00:21;;;;;;;46.63;27.02;;;;;;;;;;4996795;28;20026;-63
2023/12/13 00:02:46;;;;;;;48.88;27.25;;;;;;;;;;4996964;28;20014;-62
2023/12/13 00:05:12;;;;;;;52.80;28.42;;;;;;;;;;4997190;28;20043;-62
2023/12/13 00:07:37;;;;;;;42.95;26.08;;;;;;;;;;4979625;28;20034;-62
2023/12/13 00:10:04;;;;;;;41.65;24.63;;;;;;;;;;4995976;28;20041;-62
2023/12/13 00:12:29;;;;;;;37.25;21.75;;;;;;;;;;4996988;28;20468;-62
2023/12/13 00:14:56;;;;;;;41.58;24.33;;;;;;;;;;4996325;28;20022;-62
2023/12/13 00:17:21;;;;;;;59.88;29.30;;;;;;;;;;4996499;28;20033;-63
2023/12/13 00:19:47;;;;;;;106.25;41.50;;;;;;;;;;4996307;28;20038;-63
2023/12/13 00:22:12;;;;;;;90.55;36.65;;;;;;;;;;4996305;28;20118;-63
2023/12/13 00:24:38;;;;;;;74.43;32.25;;;;;;;;;;4979036;28;20044;-63
2023/12/13 00:27:03;;;;;;;59.33;28.23;;;;;;;;;;4996616;28;20037;-62
2023/12/13 00:29:36;;;;;;;53.08;25.42;;;;;;;;;;4995819;28;20034;-62
2023/12/13 00:32:01;;;;;;;40.50;21.52;;;;;;;;;;4996072;28;20055;-63
2023/12/13 00:34:27;;;;;;;29.25;17.08;;;;;;;;;;4996124;28;20030;-63
2023/12/13 00:36:52;;;;;;;29.60;18.33;;;;;;;;;;4996451;28;20038;-62
2023/12/13 00:39:18;;;;;;;25.88;15.27;;;;;;;;;;4996570;28;20026;-62
2023/12/13 00:41:43;;;;;;;20.13;12.75;;;;;;;;;;4996500;28;20076;-62
2023/12/13 00:44:08;;;;;;;24.92;13.82;;;;;;;;;;4996302;28;20026;-62
2023/12/13 00:46:34;;;;;;;43.90;19.70;;;;;;;;;;4996170;28;20026;-62
2023/12/13 00:48:59;;;;;;;35.78;18.27;;;;;;;;;;4996098;28;20022;-63
2023/12/13 00:51:25;;;;;;;30.25;17.08;;;;;;;;;;4978440;28;20031;-63
2023/12/13 00:53:51;;;;;;;24.33;14.93;;;;;;;;;;4978734;28;20488;-63
2023/12/13 00:56:16;;;;;;;21.55;13.18;;;;;;;;;;4995685;28;20065;-63
2023/12/13 00:58:51;;;;;;;17.67;11.80;;;;;;;;;;4995947;28;20034;-63
2023/12/13 01:01:16;;;;;;;18.20;12.05;;;;;;;;;;4995960;28;20404;-63
2023/12/13 01:03:42;;;;;;;32.00;16.20;;;;;;;;;;4978882;28;20045;-63
2023/12/13 01:06:09;;;;;;;36.33;19.70;;;;;;;;;;4978588;28;20022;-63
2023/12/13 01:08:35;;;;;;;42.88;20.58;;;;;;;;;;4995833;28;20038;-64
2023/12/13 01:11:00;;;;;;;37.70;19.92;;;;;;;;;;4978543;28;20038;-64
2023/12/13 01:13:27;;;;;;;36.65;20.15;;;;;;;;;;4996176;28;20068;-65
2023/12/13 01:15:53;;;;;;;33.80;18.10;;;;;;;;;;4978064;28;20026;-65
2023/12/13 01:18:18;;;;;;;27.25;14.90;;;;;;;;;;4962375;28;20031;-64
2023/12/13 01:20:43;;;;;;;24.17;13.25;;;;;;;;;;4995787;28;20041;-64
2023/12/13 01:23:09;;;;;;;22.27;13.85;;;;;;;;;;4995801;28;20037;-64
2023/12/13 01:25:34;;;;;;;22.50;13.00;;;;;;;;;;4995279;28;20033;-63
2023/12/13 01:28:00;;;;;;;23.75;13.60;;;;;;;;;;4995434;28;20552;-62
2023/12/13 01:30:25;;;;;;;24.02;14.05;;;;;;;;;;4995587;28;20104;-63
2023/12/13 01:32:50;;;;;;;37.63;18.10;;;;;;;;;;4961648;28;20497;-62
2023/12/13 01:35:16;;;;;;;30.38;17.13;;;;;;;;;;4995328;28;20470;-62
2023/12/13 01:37:41;;;;;;;30.63;16.75;;;;;;;;;;4995394;28;20101;-62
2023/12/13 01:40:08;;;;;;;27.45;15.65;;;;;;;;;;4995576;28;20030;-62
2023/12/13 01:42:36;;;;;;;33.38;18.08;;;;;;;;;;4995582;28;20080;-63
2023/12/13 01:45:02;;;;;;;36.65;19.33;;;;;;;;;;4977212;28;20058;-62
2023/12/13 01:47:27;;;;;;;34.42;18.67;;;;;;;;;;4994995;28;20500;-62
2023/12/13 01:49:54;;;;;;;33.30;17.98;;;;;;;;;;4995196;28;20366;-62
2023/12/13 01:52:19;;;;;;;30.02;16.35;;;;;;;;;;4995258;28;20042;-62
2023/12/13 01:54:45;;;;;;;25.52;14.43;;;;;;;;;;4994876;28;20022;-62
2023/12/13 01:57:13;;;;;;;22.38;11.82;;;;;;;;;;4977530;28;20089;-62
2023/12/13 01:59:38;;;;;;;18.55;11.70;;;;;;;;;;4995218;28;20365;-62
2023/12/13 02:02:04;;;;;;;18.38;10.70;;;;;;;;;;4994637;28;20045;-62
2023/12/13 02:04:30;;;;;;;20.27;11.48;;;;;;;;;;4977227;28;20030;-62
2023/12/13 02:06:55;;;;;;;22.27;12.18;;;;;;;;;;4994554;28;20053;-62
2023/12/13 02:09:20;;;;;;;21.63;11.80;;;;;;;;;;5013140;23;20066;-57
2023/12/13 02:11:46;;;;;;;24.25;11.77;;;;;;;;;;4997502;23;20054;-62
2023/12/13 02:14:12;;;;;;;29.10;13.02;;;;;;;;;;4993884;28;20028;-63
2023/12/13 02:16:37;;;;;;;29.17;12.90;;;;;;;;;;4994748;28;20027;-58
2023/12/13 02:19:14;;;;;;;38.83;15.10;;;;;;;;;;4994286;28;20087;-58
2023/12/13 02:21:40;;;;;;;33.65;14.60;;;;;;;;;;4994273;28;20026;-58
2023/12/13 02:24:07;;;;;;;27.02;12.52;;;;;;;;;;4994920;28;20357;-58
2023/12/13 02:26:35;;;;;;;16.67;10.80;;;;;;;;;;4994309;28;20045;-58
2023/12/13 02:29:00;;;;;;;18.55;10.52;;;;;;;;;;4994797;28;20435;-59
2023/12/13 02:31:28;;;;;;;16.55;10.30;;;;;;;;;;4994586;28;20030;-59
2023/12/13 02:33:54;;;;;;;18.33;10.07;;;;;;;;;;4994181;28;20037;-59
2023/12/13 02:36:19;;;;;;;18.55;10.35;;;;;;;;;;4995100;28;20108;-58
2023/12/13 02:38:46;;;;;;;14.13;9.23;;;;;;;;;;4994238;28;20065;-58
2023/12/13 02:41:11;;;;;;;14.30;8.65;;;;;;;;;;4977341;28;20034;-58
2023/12/13 02:43:45;;;;;;;19.40;9.10;;;;;;;;;;4993684;28;20018;-58
2023/12/13 02:46:10;;;;;;;20.45;10.23;;;;;;;;;;4976634;28;20034;-58
2023/12/13 02:48:36;;;;;;;19.38;9.80;;;;;;;;;;4994462;28;20366;-58
2023/12/13 02:51:03;;;;;;;19.42;10.27;;;;;;;;;;4994801;28;20121;-58
2023/12/13 02:53:28;;;;;;;18.35;9.45;;;;;;;;;;4994320;28;20031;-58
2023/12/13 02:55:53;;;;;;;14.00;7.90;;;;;;;;;;4994460;28;20040;-58
2023/12/13 02:58:19;;;;;;;14.50;8.23;;;;;;;;;;4998233;28;20037;-58
2023/12/13 03:00:44;;;;;;;10.48;7.78;;;;;;;;;;4997679;28;20109;-58
2023/12/13 03:03:10;;;;;;;11.77;7.57;;;;;;;;;;4997701;28;20062;-58
2023/12/13 03:05:35;;;;;;;11.90;7.28;;;;;;;;;;4998395;28;20073;-58
2023/12/13 03:08:01;;;;;;;14.27;7.68;;;;;;;;;;4998034;28;20058;-58
2023/12/13 03:10:27;;;;;;;11.20;7.70;;;;;;;;;;4997939;28;20034;-56
2023/12/13 03:12:53;;;;;;;11.50;7.68;;;;;;;;;;5011001;28;20081;-56
2023/12/13 03:15:18;;;;;;;11.82;7.68;;;;;;;;;;5017738;28;20069;-56
2023/12/13 03:17:44;;;;;;;14.45;8.48;;;;;;;;;;5017363;28;20037;-57
2023/12/13 03:20:10;;;;;;;14.30;8.63;;;;;;;;;;5000024;28;20026;-56
2023/12/13 03:22:35;;;;;;;12.75;8.23;;;;;;;;;;4967574;28;20022;-56
2023/12/13 03:25:01;;;;;;;14.93;8.57;;;;;;;;;;5000158;28;20113;-57
2023/12/13 03:27:26;;;;;;;14.95;8.93;;;;;;;;;;4999859;28;20065;-56
2023/12/13 03:29:51;;;;;;;13.95;9.10;;;;;;;;;;5017081;28;20026;-57
2023/12/13 03:32:17;;;;;;;16.65;8.63;;;;;;;;;;5016071;28;20038;-57
2023/12/13 03:34:42;;;;;;;14.88;9.48;;;;;;;;;;4999171;28;20501;-57
2023/12/13 03:37:08;;;;;;;15.52;8.95;;;;;;;;;;5016564;28;20189;-57
2023/12/13 03:39:33;;;;;;;15.63;9.00;;;;;;;;;;5016744;28;20026;-57
2023/12/13 03:41:59;;;;;;;15.20;9.52;;;;;;;;;;5016777;28;20369;-57
2023/12/13 03:44:24;;;;;;;13.80;9.10;;;;;;;;;;5016624;28;20518;-57
2023/12/13 03:46:49;;;;;;;18.50;10.35;;;;;;;;;;5017206;28;20062;-57
2023/12/13 03:49:16;;;;;;;16.25;10.38;;;;;;;;;;5016976;28;20061;-55
2023/12/13 03:51:45;;;;;;;16.38;10.60;;;;;;;;;;5016194;28;20488;-57
2023/12/13 03:54:11;;;;;;;17.33;10.83;;;;;;;;;;5016454;28;20037;-56
2023/12/13 03:56:37;;;;;;;17.33;10.65;;;;;;;;;;5016664;28;20034;-56
2023/12/13 03:59:02;;;;;;;17.45;10.50;;;;;;;;;;5016331;28;20079;-56
2023/12/13 04:01:28;;;;;;;17.58;11.07;;;;;;;;;;5015658;28;20527;-62
2023/12/13 04:03:53;;;;;;;18.67;11.70;;;;;;;;;;5016671;28;20517;-62
2023/12/13 04:06:19;;;;;;;17.70;11.38;;;;;;;;;;5016692;28;20400;-62
2023/12/13 04:08:44;;;;;;;18.23;11.93;;;;;;;;;;5015280;28;20113;-62
2023/12/13 04:11:09;;;;;;;17.80;11.90;;;;;;;;;;5016382;28;20061;-63
2023/12/13 04:13:35;;;;;;;18.10;12.07;;;;;;;;;;5016547;28;20092;-62
2023/12/13 04:16:00;;;;;;;16.00;11.05;;;;;;;;;;5016312;28;20038;-62
2023/12/13 04:18:26;;;;;;;18.60;11.82;;;;;;;;;;5016750;28;20041;-62
2023/12/13 04:20:51;;;;;;;18.13;11.55;;;;;;;;;;5016351;28;20029;-63
2023/12/13 04:23:16;;;;;;;21.52;12.35;;;;;;;;;;4998318;28;20030;-63
2023/12/13 04:25:42;;;;;;;17.58;11.13;;;;;;;;;;5015500;28;20034;-62
2023/12/13 04:28:08;;;;;;;16.50;11.23;;;;;;;;;;5015646;28;20060;-62
2023/12/13 04:30:33;;;;;;;18.38;11.43;;;;;;;;;;5016315;28;20479;-62
2023/12/13 04:32:58;;;;;;;19.65;12.27;;;;;;;;;;4998090;28;20038;-57
2023/12/13 04:35:24;;;;;;;15.52;11.52;;;;;;;;;;5016058;28;20516;-56
2023/12/13 04:37:49;;;;;;;17.33;12.23;;;;;;;;;;5015803;28;20365;-62
2023/12/13 04:40:14;;;;;;;18.50;11.77;;;;;;;;;;5015683;28;20511;-62
2023/12/13 04:42:41;;;;;;;17.13;11.10;;;;;;;;;;5016044;28;20454;-62
2023/12/13 04:45:07;;;;;;;18.17;12.80;;;;;;;;;;5015672;28;20033;-63
2023/12/13 04:47:33;;;;;;;18.02;12.40;;;;;;;;;;5015398;28;20510;-63
2023/12/13 04:49:59;;;;;;;18.52;12.57;;;;;;;;;;5015342;28;20480;-62
2023/12/13 04:52:25;;;;;;;16.08;11.65;;;;;;;;;;4997194;28;20034;-63
2023/12/13 04:54:50;;;;;;;16.92;12.05;;;;;;;;;;5014854;28;20041;-63
2023/12/13 04:57:16;;;;;;;17.85;12.30;;;;;;;;;;5014941;28;20010;-62
2023/12/13 04:59:41;;;;;;;20.17;13.57;;;;;;;;;;4997497;28;20030;-63
2023/12/13 05:02:06;;;;;;;19.27;12.55;;;;;;;;;;5014585;28;20032;-63
2023/12/13 05:04:32;;;;;;;18.77;12.88;;;;;;;;;;4997816;28;20030;-63
2023/12/13 05:06:57;;;;;;;22.33;13.57;;;;;;;;;;4997967;28;20065;-63
2023/12/13 05:09:22;;;;;;;19.23;13.00;;;;;;;;;;5015251;28;20030;-63
2023/12/13 05:11:48;;;;;;;20.83;13.32;;;;;;;;;;5014783;28;20044;-63
2023/12/13 05:14:13;;;;;;;17.48;12.48;;;;;;;;;;5014792;28;20080;-63
2023/12/13 05:16:39;;;;;;;17.75;12.48;;;;;;;;;;5015043;28;20038;-62
2023/12/13 05:19:04;;;;;;;18.80;12.88;;;;;;;;;;5015125;28;20052;-63
2023/12/13 05:21:29;;;;;;;18.27;11.98;;;;;;;;;;5013464;28;20542;-64
2023/12/13 05:23:55;;;;;;;21.30;12.65;;;;;;;;;;4996993;28;20391;-63
2023/12/13 05:26:20;;;;;;;19.05;12.32;;;;;;;;;;5013997;28;20069;-63
2023/12/13 05:28:46;;;;;;;18.73;12.85;;;;;;;;;;5014810;28;20026;-62
2023/12/13 05:31:22;;;;;;;22.63;14.43;;;;;;;;;;5015179;28;20038;-62
2023/12/13 05:33:48;;;;;;;26.08;16.98;;;;;;;;;;5014499;28;20034;-63
2023/12/13 05:36:13;;;;;;;23.85;15.45;;;;;;;;;;5014460;28;20041;-63
2023/12/13 05:38:38;;;;;;;20.83;15.13;;;;;;;;;;5014811;28;20524;-63
2023/12/13 05:41:04;;;;;;;22.20;15.45;;;;;;;;;;5014700;28;20400;-63
2023/12/13 05:43:30;;;;;;;25.98;16.67;;;;;;;;;;5014427;28;20029;-62
2023/12/13 05:45:55;;;;;;;22.88;15.93;;;;;;;;;;5014806;28;20080;-62
2023/12/13 05:48:21;;;;;;;26.17;17.25;;;;;;;;;;5014846;28;20117;-62
2023/12/13 05:50:46;;;;;;;23.33;13.60;;;;;;;;;;5014920;28;20097;-62
2023/12/13 05:53:12;;;;;;;20.25;13.18;;;;;;;;;;5014615;28;20044;-62
2023/12/13 05:55:42;;;;;;;19.38;13.18;;;;;;;;;;4997226;28;20013;-62
2023/12/13 05:58:07;;;;;;;20.05;12.80;;;;;;;;;;5014740;28;20030;-62
2023/12/13 06:00:34;;;;;;;16.92;11.55;;;;;;;;;;5014278;28;20037;-62
2023/12/13 06:03:00;;;;;;;18.65;12.07;;;;;;;;;;5014423;28;20053;-62
2023/12/13 06:05:26;;;;;;;17.38;12.10;;;;;;;;;;5014382;28;20506;-63
2023/12/13 06:07:51;;;;;;;18.75;11.57;;;;;;;;;;4997021;28;20025;-63
2023/12/13 06:10:17;;;;;;;19.38;12.20;;;;;;;;;;5014895;28;20514;-63
2023/12/13 06:12:42;;;;;;;19.88;12.30;;;;;;;;;;5014043;28;20069;-63
2023/12/13 06:15:08;;;;;;;20.73;12.40;;;;;;;;;;5014151;28;20042;-63
2023/12/13 06:17:33;;;;;;;22.00;13.93;;;;;;;;;;5014891;28;20024;-63
2023/12/13 06:20:00;;;;;;;21.10;13.95;;;;;;;;;;5014578;28;20084;-63
2023/12/13 06:22:26;;;;;;;21.52;12.52;;;;;;;;;;5014961;28;20041;-63
2023/12/13 06:24:51;;;;;;;21.77;12.07;;;;;;;;;;5014189;28;20030;-63
2023/12/13 06:27:16;;;;;;;15.70;11.43;;;;;;;;;;4996449;28;20029;-63
2023/12/13 06:29:42;;;;;;;16.40;11.82;;;;;;;;;;5014463;28;20512;-63
2023/12/13 06:32:08;;;;;;;16.80;11.68;;;;;;;;;;5015463;28;20026;-63
2023/12/13 06:34:33;;;;;;;17.15;11.70;;;;;;;;;;5017326;28;20448;-63
2023/12/13 06:36:58;;;;;;;17.10;11.27;;;;;;;;;;5017732;28;20040;-63
2023/12/13 06:39:24;;;;;;;16.33;10.98;;;;;;;;;;5018140;28;20098;-63
2023/12/13 06:41:49;;;;;;;16.58;11.30;;;;;;;;;;5017620;28;20122;-63
2023/12/13 06:44:15;;;;;;;14.98;9.93;;;;;;;;;;5000132;28;20022;-63
2023/12/13 06:46:41;;;;;;;14.60;10.68;;;;;;;;;;5017655;28;20030;-63
2023/12/13 06:49:09;;;;;;;15.15;10.48;;;;;;;;;;5018343;28;20036;-63
2023/12/13 06:51:34;;;;;;;14.75;10.55;;;;;;;;;;5017603;28;20033;-63
2023/12/13 06:54:00;;;;;;;15.15;10.13;;;;;;;;;;5000104;28;20427;-63
2023/12/13 06:56:25;;;;;;;16.30;10.75;;;;;;;;;;5000084;28;20488;-63
2023/12/13 06:58:50;;;;;;;15.73;10.65;;;;;;;;;;5017794;28;20022;-63
2023/12/13 07:01:16;;;;;;;16.77;10.25;;;;;;;;;;5017486;28;20495;-63
2023/12/13 07:03:41;;;;;;;15.68;10.88;;;;;;;;;;5000231;28;20038;-63
2023/12/13 07:06:07;;;;;;;16.08;10.55;;;;;;;;;;5017636;28;20041;-63
2023/12/13 07:08:34;;;;;;;15.07;11.07;;;;;;;;;;5017768;28;20476;-63
2023/12/13 07:11:00;;;;;;;13.23;10.55;;;;;;;;;;4999769;28;20030;-63
2023/12/13 07:13:26;;;;;;;15.38;12.50;;;;;;;;;;4999701;28;20053;-63
2023/12/13 07:15:51;;;;;;;16.10;11.70;;;;;;;;;;4999713;28;20038;-63
2023/12/13 07:18:16;;;;;;;14.63;9.85;;;;;;;;;;4999899;28;20044;-63
2023/12/13 07:20:42;;;;;;;15.38;12.25;;;;;;;;;;5017859;28;20116;-63
2023/12/13 07:23:07;;;;;;;15.35;11.13;;;;;;;;;;4999469;28;20034;-63
2023/12/13 07:25:32;;;;;;;16.05;11.80;;;;;;;;;;5000046;28;20029;-57
2023/12/13 07:27:58;;;;;;;21.35;16.15;;;;;;;;;;5017531;28;20034;-57
2023/12/13 07:30:24;;;;;;;18.27;13.32;;;;;;;;;;5017186;28;20499;-57
2023/12/13 07:32:50;;;;;;;29.67;20.58;;;;;;;;;;5016900;28;20435;-57
2023/12/13 07:35:15;;;;;;;30.92;23.13;;;;;;;;;;5017088;28;20037;-57
2023/12/13 07:37:41;;;;;;;31.13;22.00;;;;;;;;;;5017107;28;20022;-57
2023/12/13 07:40:06;;;;;;;23.77;17.35;;;;;;;;;;5017177;28;20034;-57
2023/12/13 07:42:32;;;;;;;22.60;15.88;;;;;;;;;;5016500;28;20017;-57
2023/12/13 07:44:58;;;;;;;20.17;14.40;;;;;;;;;;4998789;28;20067;-57
2023/12/13 07:47:23;;;;;;;20.15;14.80;;;;;;;;;;4999166;28;20040;-57
2023/12/13 07:49:49;;;;;;;18.95;12.93;;;;;;;;;;5016853;28;20533;-57
2023/12/13 07:52:14;;;;;;;18.55;12.55;;;;;;;;;;5016839;28;20033;-57
2023/12/13 07:54:40;;;;;;;50.10;39.13;;;;;;;;;;5016662;28;20033;-57
2023/12/13 07:57:05;;;;;;;23.20;18.63;;;;;;;;;;5016459;28;20157;-57
2023/12/13 07:59:30;;;;;;;65.15;58.20;;;;;;;;;;5016397;28;20029;-57
2023/12/13 08:01:56;;;;;;;33.05;29.00;;;;;;;;;;5016593;28;20103;-57
2023/12/13 08:04:21;;;;;;;13.98;10.65;;;;;;;;;;5016568;28;20029;-57
2023/12/13 08:06:47;;;;;;;17.02;13.30;;;;;;;;;;5016259;28;20030;-57
2023/12/13 08:09:13;;;;;;;17.02;14.23;;;;;;;;;;4998738;28;20029;-57
2023/12/13 08:11:38;;;;;;;22.88;18.63;;;;;;;;;;5016204;28;20042;-58
2023/12/13 08:14:04;;;;;;;18.52;15.20;;;;;;;;;;4998548;28;20450;-58
2023/12/13 08:16:29;;;;;;;21.38;19.05;;;;;;;;;;4998427;28;20484;-58
2023/12/13 08:18:55;;;;;;;15.02;11.10;;;;;;;;;;4998568;28;20073;-57
2023/12/13 08:21:23;;;;;;;12.52;9.27;;;;;;;;;;5015977;28;20375;-58
2023/12/13 08:23:49;;;;;;;25.65;20.80;;;;;;;;;;5016236;28;20041;-57
2023/12/13 08:26:14;;;;;;;16.55;11.15;;;;;;;;;;5015885;28;20026;-57
2023/12/13 08:28:39;;;;;;;12.70;9.93;;;;;;;;;;5015819;28;20079;-58
2023/12/13 08:31:07;;;;;;;21.77;12.45;;;;;;;;;;5015790;28;20113;-58
2023/12/13 08:33:32;;;;;;;22.70;13.73;;;;;;;;;;5015738;28;20040;-57
2023/12/13 08:35:59;;;;;;;15.20;10.20;;;;;;;;;;5016181;28;20033;-58
2023/12/13 08:38:24;;;;;;;15.63;10.10;;;;;;;;;;5016199;28;20026;-57
2023/12/13 08:40:51;;;;;;;16.70;11.52;;;;;;;;;;4998038;28;20044;-57
2023/12/13 08:43:16;;;;;;;19.40;15.18;;;;;;;;;;5015855;28;20022;-58
2023/12/13 08:45:41;;;;;;;13.75;9.50;;;;;;;;;;5016068;28;20037;-58
2023/12/13 08:48:07;;;;;;;23.10;17.10;;;;;;;;;;4997938;28;20030;-57
2023/12/13 08:50:33;;;;;;;14.82;10.65;;;;;;;;;;5015700;28;20443;-57
2023/12/13 08:52:58;;;;;;;20.90;13.38;;;;;;;;;;5015696;28;20065;-57
2023/12/13 08:55:24;;;;;;;21.83;11.68;;;;;;;;;;4997602;28;20076;-57
2023/12/13 08:57:50;;;;;;;34.70;27.00;;;;;;;;;;5015565;28;20072;-57
2023/12/13 09:00:15;;;;;;;40.10;27.80;;;;;;;;;;5015259;28;20476;-57
2023/12/13 09:02:41;;;;;;;23.13;15.27;;;;;;;;;;4998029;28;20026;-57
2023/12/13 09:05:07;;;;;;;19.67;11.50;;;;;;;;;;5015168;28;20534;-57
2023/12/13 09:07:32;;;;;;;18.63;11.13;;;;;;;;;;5015353;28;20018;-57
2023/12/13 09:09:58;;;;;;;15.20;10.15;;;;;;;;;;4997460;28;20030;-57
2023/12/13 09:12:23;;;;;;;14.82;8.90;;;;;;;;;;5014931;28;20444;-57
2023/12/13 09:14:48;;;;;;;12.93;9.13;;;;;;;;;;4997429;28;20404;-57
2023/12/13 09:17:14;;;;;;;9.98;7.10;;;;;;;;;;4997525;28;20400;-57
2023/12/13 09:19:39;;;;;;;21.92;16.17;;;;;;;;;;4997388;28;20033;-57
2023/12/13 09:22:04;;;;;;;50.20;32.08;;;;;;;;;;5015116;28;20026;-57
2023/12/13 09:24:30;;;;;;;51.15;35.30;;;;;;;;;;4997213;28;20018;-57
2023/12/13 09:26:58;;;;;;;22.52;18.45;;;;;;;;;;4997516;28;20113;-57
2023/12/13 09:29:23;;;;;;;15.75;12.10;;;;;;;;;;5015043;28;20050;-57
2023/12/13 09:31:48;;;;;;;12.27;10.60;;;;;;;;;;5014691;28;20467;-57
2023/12/13 09:34:14;;;;;;;36.25;27.38;;;;;;;;;;5014677;28;20490;-57
2023/12/13 09:36:40;;;;;;;17.63;13.25;;;;;;;;;;5015084;28;20033;-57
2023/12/13 09:39:05;;;;;;;11.75;6.82;;;;;;;;;;5014583;28;20030;-57
2023/12/13 09:41:35;;;;;;;9.50;7.43;;;;;;;;;;5014537;28;20041;-57
2023/12/13 09:44:00;;;;;;;76.88;39.40;;;;;;;;;;5014778;28;20022;-57
2023/12/13 09:46:26;;;;;;;56.20;40.20;;;;;;;;;;5014727;28;20056;-57
2023/12/13 09:48:51;;;;;;;17.70;11.55;;;;;;;;;;5014687;28;20140;-57
2023/12/13 09:51:18;;;;;;;17.02;9.32;;;;;;;;;;5014655;28;20029;-57
2023/12/13 09:53:45;;;;;;;22.42;11.30;;;;;;;;;;5014761;28;20030;-57
2023/12/13 09:56:11;;;;;;;29.75;16.15;;;;;;;;;;4996635;28;20018;-57
2023/12/13 09:58:36;;;;;;;41.03;28.98;;;;;;;;;;4997338;28;20038;-57
2023/12/13 10:01:05;;;;;;;19.38;11.85;;;;;;;;;;5014471;28;20030;-58
2023/12/13 10:03:31;;;;;;;31.20;19.83;;;;;;;;;;5014471;28;20026;-57
2023/12/13 10:05:58;;;;;;;24.58;18.02;;;;;;;;;;5013939;28;20040;-57
2023/12/13 10:08:24;;;;;;;28.90;22.90;;;;;;;;;;5014381;28;20421;-57
2023/12/13 10:10:50;;;;;;;23.67;16.35;;;;;;;;;;5014380;28;20108;-57
2023/12/13 10:13:15;;;;;;;31.30;15.50;;;;;;;;;;5014022;28;20049;-57
2023/12/13 10:15:40;;;;;;;22.17;12.18;;;;;;;;;;4996749;28;20061;-57
2023/12/13 10:18:05;;;;;;;11.55;9.07;;;;;;;;;;5013986;28;20036;-57
2023/12/13 10:20:31;;;;;;;16.63;10.70;;;;;;;;;;5013974;28;20628;-57
2023/12/13 10:22:56;;;;;;;12.23;8.68;;;;;;;;;;5014218;28;20460;-57
2023/12/13 10:25:22;;;;;;;15.90;9.15;;;;;;;;;;5014188;28;20026;-57
2023/12/13 10:27:48;;;;;;;25.40;13.60;;;;;;;;;;5014499;28;20109;-57
2023/12/13 10:30:14;;;;;;;16.17;10.73;;;;;;;;;;5014149;28;20088;-57
2023/12/13 10:32:40;;;;;;;15.38;11.15;;;;;;;;;;5013845;28;20468;-58
2023/12/13 10:35:06;;;;;;;15.23;11.63;;;;;;;;;;5013712;28;20030;-57
2023/12/13 10:37:35;;;;;;;11.30;8.93;;;;;;;;;;5014442;28;20096;-57
2023/12/13 10:40:00;;;;;;;11.98;7.95;;;;;;;;;;5013742;28;20030;-57
2023/12/13 10:42:26;;;;;;;10.98;8.02;;;;;;;;;;5013762;28;20029;-57
2023/12/13 10:44:52;;;;;;;15.57;10.90;;;;;;;;;;4996552;28;20037;-57
2023/12/13 10:47:18;;;;;;;10.75;8.00;;;;;;;;;;5013726;28;20433;-57
2023/12/13 10:49:44;;;;;;;12.77;7.82;;;;;;;;;;5013686;28;20022;-57
2023/12/13 10:52:10;;;;;;;14.20;9.45;;;;;;;;;;5013874;28;20053;-57
2023/12/13 10:54:37;;;;;;;13.30;9.73;;;;;;;;;;5013886;28;20018;-57
2023/12/13 10:57:02;;;;;;;13.73;10.05;;;;;;;;;;5013634;28;20032;-57
2023/12/13 10:59:28;;;;;;;17.80;11.30;;;;;;;;;;5014170;28;20368;-57
2023/12/13 11:01:55;;;;;;;28.50;17.23;;;;;;;;;;5013885;28;20061;-57
2023/12/13 11:04:20;;;;;;;23.88;14.82;;;;;;;;;;5013572;28;20408;-57
2023/12/13 11:06:46;;;;;;;15.15;11.65;;;;;;;;;;4995942;28;20076;-57
2023/12/13 11:09:17;;;;;;;19.88;14.10;;;;;;;;;;5013801;28;20084;-57
2023/12/13 11:11:42;;;;;;;;;;;;;;;;;;4996489;28;20106;-57
2023/12/13 11:14:09;;;;;;;19.67;11.30;;;;;;;;;;5013321;28;20346;-57
2023/12/13 11:16:42;;;;;;;25.67;17.45;;;;;;;;;;5013656;28;20034;-57
2023/12/13 11:19:10;;;;;;;21.75;14.80;;;;;;;;;;5016727;28;20030;-58
2023/12/13 11:21:35;;;;;;;44.95;26.85;;;;;;;;;;5017608;28;20026;-57
2023/12/13 11:24:13;;;;;;;30.60;18.58;;;;;;;;;;5017107;28;20523;-58
2023/12/13 11:26:48;;;;;;;14.57;10.98;;;;;;;;;;5017061;28;20077;-57
2023/12/13 11:29:21;;;;;;;27.58;18.65;;;;;;;;;;4999404;28;20026;-58
2023/12/13 11:31:54;;;;;;;16.05;11.30;;;;;;;;;;5017510;28;20072;-57
2023/12/13 11:34:48;;;;;;;41.05;24.05;;;;;;;;;;5017233;28;20037;-57
2023/12/13 11:37:14;;;;;;;36.97;18.92;;;;;;;;;;4999923;28;20040;-57
2023/12/13 11:39:40;;;;;;;35.67;22.08;;;;;;;;;;5016797;28;20110;-57
2023/12/13 11:42:07;;;;;;;24.65;15.13;;;;;;;;;;5017009;28;20040;-58
2023/12/13 11:44:33;;;;;;;26.80;16.60;;;;;;;;;;4999090;28;20022;-57
2023/12/13 11:46:59;;;;;;;18.10;11.70;;;;;;;;;;5016688;28;20125;-57
2023/12/13 11:49:26;;;;;;;17.15;12.50;;;;;;;;;;5017166;28;20029;-57
2023/12/13 11:51:54;;;;;;;31.58;17.60;;;;;;;;;;5016820;28;20423;-57
2023/12/13 11:54:20;;;;;;;21.67;14.05;;;;;;;;;;5016532;28;20121;-57
2023/12/13 11:56:45;;;;;;;16.38;11.13;;;;;;;;;;5016412;28;20105;-57
2023/12/13 11:59:11;;;;;;;27.13;15.70;;;;;;;;;;4998789;28;20033;-57
2023/12/13 12:01:36;;;;;;;28.90;17.10;;;;;;;;;;5016373;28;20030;-57
2023/12/13 12:04:02;;;;;;;29.00;16.15;;;;;;;;;;4999109;28;20079;-57
2023/12/13 12:06:28;;;;;;;26.67;14.30;;;;;;;;;;5016315;28;20061;-57
2023/12/13 12:08:53;;;;;;;27.35;15.00;;;;;;;;;;5016528;28;20108;-57
2023/12/13 12:11:19;;;;;;;23.52;13.55;;;;;;;;;;4998994;28;20488;-57
2023/12/13 12:13:44;;;;;;;31.42;14.85;;;;;;;;;;5016169;28;20534;-57
2023/12/13 12:16:10;;;;;;;22.25;12.00;;;;;;;;;;5016062;28;20038;-58
2023/12/13 12:18:38;;;;;;;21.25;12.43;;;;;;;;;;5016081;28;20361;-57
2023/12/13 12:21:05;;;;;;;17.02;11.57;;;;;;;;;;4999061;28;20112;-57
2023/12/13 12:23:30;;;;;;;24.00;13.85;;;;;;;;;;5016297;28;20037;-57
2023/12/13 12:25:56;;;;;;;20.80;12.40;;;;;;;;;;4982304;28;20076;-57
2023/12/13 12:28:22;;;;;;;29.60;15.00;;;;;;;;;;5016317;28;20022;-57
2023/12/13 12:30:48;;;;;;;27.27;15.60;;;;;;;;;;5015869;28;20181;-57
2023/12/13 12:33:13;;;;;;;28.98;15.57;;;;;;;;;;5015786;28;20049;-57
2023/12/13 12:35:39;;;;;;;21.13;12.27;;;;;;;;;;5015683;28;20389;-57
2023/12/13 12:38:08;;;;;;;17.70;13.52;;;;;;;;;;5042862;23;20053;-62
2023/12/13 12:40:33;;;;;;;25.95;15.52;;;;;;;;;;5039455;23;20049;-58
2023/12/13 12:42:59;;;;;;;28.85;16.48;;;;;;;;;;5014348;28;20048;-57
2023/12/13 12:45:25;;;;;;;41.42;20.77;;;;;;;;;;5015795;28;20384;-57
2023/12/13 12:47:50;;;;;;;32.30;19.33;;;;;;;;;;5015472;28;20034;-57
2023/12/13 12:50:16;;;;;;;48.58;29.75;;;;;;;;;;5015939;28;20025;-57
2023/12/13 12:52:42;;;;;;;120.05;89.93;;;;;;;;;;5015383;28;20034;-57
2023/12/13 12:55:07;;;;;;;163.30;108.05;;;;;;;;;;5015278;28;20389;-57
2023/12/13 12:57:33;;;;;;;158.25;102.10;;;;;;;;;;5015588;28;20384;-57
2023/12/13 12:59:58;;;;;;;62.58;40.63;;;;;;;;;;5015302;28;20491;-57
2023/12/13 13:02:23;;;;;;;86.45;59.03;;;;;;;;;;5015523;28;20068;-57
2023/12/13 13:04:49;;;;;;;62.80;38.75;;;;;;;;;;4981435;28;20038;-57
2023/12/13 13:07:14;;;;;;;49.45;35.33;;;;;;;;;;5015105;28;20066;-57
2023/12/13 13:09:40;;;;;;;21.73;16.63;;;;;;;;;;5014084;28;20053;-57
2023/12/13 13:12:05;;;;;;;40.25;33.15;;;;;;;;;;5015132;28;20030;-58
2023/12/13 13:14:30;;;;;;;40.15;32.03;;;;;;;;;;4997826;28;20030;-57
2023/12/13 13:16:56;;;;;;;108.07;79.25;;;;;;;;;;4997302;28;20176;-57
2023/12/13 13:19:21;;;;;;;59.45;48.78;;;;;;;;;;5014906;28;20034;-57
2023/12/13 13:21:47;;;;;;;33.92;26.52;;;;;;;;;;4997727;28;20026;-57
2023/12/13 13:24:12;;;;;;;41.67;27.33;;;;;;;;;;5013268;28;20026;-57
2023/12/13 13:26:38;;;;;;;30.25;24.27;;;;;;;;;;5013276;28;20044;-57
2023/12/13 13:29:03;;;;;;;30.00;20.63;;;;;;;;;;5014337;28;20037;-58
2023/12/13 13:31:29;;;;;;;39.00;24.10;;;;;;;;;;5014429;28;20037;-57
2023/12/13 13:33:55;;;;;;;51.28;35.33;;;;;;;;;;5014107;28;20029;-58
2023/12/13 13:36:20;;;;;;;74.70;45.80;;;;;;;;;;5014329;28;20036;-57
2023/12/13 13:38:46;;;;;;;169.18;108.13;;;;;;;;;;5014291;28;20080;-57
2023/12/13 13:41:12;;;;;;;59.53;38.55;;;;;;;;;;5012122;28;20068;-57
2023/12/13 13:43:37;;;;;;;45.35;35.45;;;;;;;;;;5014429;28;20109;-57
2023/12/13 13:46:02;;;;;;;41.42;33.38;;;;;;;;;;5014322;28;20088;-57
2023/12/13 13:48:28;;;;;;;57.85;43.65;;;;;;;;;;5014117;28;20029;-57
2023/12/13 13:50:53;;;;;;;62.67;47.28;;;;;;;;;;4996887;28;20387;-57
2023/12/13 13:53:19;;;;;;;51.40;37.95;;;;;;;;;;5014207;28;20372;-59
2023/12/13 13:55:50;;;;;;;48.28;35.53;;;;;;;;;;5013376;28;20026;-59
2023/12/13 13:58:16;;;;;;;104.72;80.68;;;;;;;;;;5013332;28;20025;-59
2023/12/13 14:00:41;;;;;;;141.23;115.65;;;;;;;;;;5013214;28;20406;-58
2023/12/13 14:03:07;;;;;;;141.80;124.50;;;;;;;;;;5013675;28;20071;-59
2023/12/13 14:05:35;;;;;;;37.58;29.63;;;;;;;;;;5014228;28;20046;-58
2023/12/13 14:08:09;;;;;;;95.35;61.30;;;;;;;;;;5014699;28;20479;-59
2023/12/13 14:10:34;;;;;;;47.22;32.08;;;;;;;;;;5014396;28;20029;-58